sensor_id;sensor_type;location;lat;lon;timestamp;P1;durP1;ratioP1;P2;durP2;ratioP2
71600;SDS011;59446;52.192;4.628;2022-08-03T00:01:00;1.00;;;0.63;;
71600;SDS011;59446;52.192;4.628;2022-08-03T00:03:25;1.13;;;0.70;;
71600;SDS011;59446;52.192;4.628;2022-08-03T00:05:51;2.97;;;1.00;;
71600;SDS011;59446;52.192;4.628;2022-08-03T00:08:17;0.90;;;0.70;;
71600;SDS011;59446;52.192;4.628;2022-08-03T00:10:42;1.50;;;0.90;;
71600;SDS011;59446;52.192;4.628;2022-08-03T00:13:07;1.33;;;0.70;;
71600;SDS011;59446;52.192;4.628;2022-08-03T00:15:33;1.47;;;0.63;;
71600;SDS011;59446;52.192;4.628;2022-08-03T00:17:59;2.42;;;0.85;;
71600;SDS011;59446;52.192;4.628;2022-08-03T00:20:24;1.70;;;0.80;;
71600;SDS011;59446;52.192;4.628;2022-08-03T00:22:50;1.70;;;0.80;;
71600;SDS011;59446;52.192;4.628;2022-08-03T00:25:15;2.90;;;0.97;;
71600;SDS011;59446;52.192;4.628;2022-08-03T00:27:41;2.22;;;0.90;;
71600;SDS011;59446;52.192;4.628;2022-08-03T00:30:06;2.47;;;0.90;;
71600;SDS011;59446;52.192;4.628;2022-08-03T00:32:32;1.83;;;0.80;;
71600;SDS011;59446;52.192;4.628;2022-08-03T00:34:58;3.37;;;0.70;;
71600;SDS011;59446;52.192;4.628;2022-08-03T00:37:23;2.73;;;0.90;;
71600;SDS011;59446;52.192;4.628;2022-08-03T00:39:48;2.33;;;0.80;;
71600;SDS011;59446;52.192;4.628;2022-08-03T00:42:14;4.87;;;0.70;;
71600;SDS011;59446;52.192;4.628;2022-08-03T00:44:40;2.50;;;0.95;;
71600;SDS011;59446;52.192;4.628;2022-08-03T00:47:06;1.67;;;0.80;;
71600;SDS011;59446;52.192;4.628;2022-08-03T00:49:34;1.48;;;0.90;;
71600;SDS011;59446;52.192;4.628;2022-08-03T00:52:00;2.22;;;0.80;;
71600;SDS011;59446;52.192;4.628;2022-08-03T00:54:26;2.30;;;0.90;;
71600;SDS011;59446;52.192;4.628;2022-08-03T00:56:52;1.55;;;0.80;;
71600;SDS011;59446;52.192;4.628;2022-08-03T00:59:17;1.42;;;0.80;;
71600;SDS011;59446;52.192;4.628;2022-08-03T01:01:43;1.90;;;0.90;;
71600;SDS011;59446;52.192;4.628;2022-08-03T01:04:08;2.20;;;0.70;;
71600;SDS011;59446;52.192;4.628;2022-08-03T01:09:46;2.40;;;0.87;;
71600;SDS011;59446;52.192;4.628;2022-08-03T01:12:33;2.92;;;0.90;;
71600;SDS011;59446;52.192;4.628;2022-08-03T01:17:35;2.03;;;1.03;;
71600;SDS011;59446;52.192;4.628;2022-08-03T01:20:12;1.43;;;0.70;;
71600;SDS011;59446;52.192;4.628;2022-08-03T01:31:39;1.60;;;0.80;;
71600;SDS011;59446;52.192;4.628;2022-08-03T01:34:09;1.70;;;0.70;;
71600;SDS011;59446;52.192;4.628;2022-08-03T01:36:39;1.92;;;0.80;;
71600;SDS011;59446;52.192;4.628;2022-08-03T01:39:12;2.13;;;0.80;;
71600;SDS011;59446;52.192;4.628;2022-08-03T01:41:47;1.00;;;0.80;;
71600;SDS011;59446;52.192;4.628;2022-08-03T01:44:15;2.40;;;1.05;;
71600;SDS011;59446;52.192;4.628;2022-08-03T01:46:41;2.37;;;0.77;;
71600;SDS011;59446;52.192;4.628;2022-08-03T01:49:10;2.05;;;0.60;;
71600;SDS011;59446;52.192;4.628;2022-08-03T01:51:40;4.13;;;1.00;;
71600;SDS011;59446;52.192;4.628;2022-08-03T01:54:07;2.95;;;0.90;;
71600;SDS011;59446;52.192;4.628;2022-08-03T01:56:34;1.57;;;0.70;;
71600;SDS011;59446;52.192;4.628;2022-08-03T01:59:02;2.38;;;0.80;;
71600;SDS011;59446;52.192;4.628;2022-08-03T02:01:28;2.00;;;0.80;;
71600;SDS011;59446;52.192;4.628;2022-08-03T02:03:55;4.60;;;0.87;;
71600;SDS011;59446;52.192;4.628;2022-08-03T02:06:23;1.05;;;0.70;;
71600;SDS011;59446;52.192;4.628;2022-08-03T02:08:50;1.20;;;0.70;;
71600;SDS011;59446;52.192;4.628;2022-08-03T02:11:17;1.20;;;0.73;;
71600;SDS011;59446;52.192;4.628;2022-08-03T02:13:43;4.55;;;0.80;;
71600;SDS011;59446;52.192;4.628;2022-08-03T02:16:10;1.13;;;0.70;;
71600;SDS011;59446;52.192;4.628;2022-08-03T02:18:37;1.42;;;0.90;;
71600;SDS011;59446;52.192;4.628;2022-08-03T02:21:04;1.73;;;0.83;;
71600;SDS011;59446;52.192;4.628;2022-08-03T02:23:34;1.65;;;0.70;;
71600;SDS011;59446;52.192;4.628;2022-08-03T02:26:01;2.05;;;0.70;;
71600;SDS011;59446;52.192;4.628;2022-08-03T02:28:30;3.80;;;0.90;;
71600;SDS011;59446;52.192;4.628;2022-08-03T02:30:58;1.65;;;0.80;;
71600;SDS011;59446;52.192;4.628;2022-08-03T02:33:33;1.83;;;0.70;;
71600;SDS011;59446;52.192;4.628;2022-08-03T02:36:03;1.33;;;0.80;;
71600;SDS011;59446;52.192;4.628;2022-08-03T02:38:32;2.63;;;0.70;;
71600;SDS011;59446;52.192;4.628;2022-08-03T02:40:59;0.90;;;0.60;;
71600;SDS011;59446;52.192;4.628;2022-08-03T02:43:28;1.75;;;0.70;;
71600;SDS011;59446;52.192;4.628;2022-08-03T02:45:55;1.40;;;0.80;;
71600;SDS011;59446;52.192;4.628;2022-08-03T02:48:25;2.00;;;0.88;;
71600;SDS011;59446;52.192;4.628;2022-08-03T02:50:53;1.27;;;0.60;;
71600;SDS011;59446;52.192;4.628;2022-08-03T02:53:21;1.52;;;0.80;;
71600;SDS011;59446;52.192;4.628;2022-08-03T02:55:48;1.35;;;0.80;;
71600;SDS011;59446;52.192;4.628;2022-08-03T02:58:16;1.10;;;0.70;;
71600;SDS011;59446;52.192;4.628;2022-08-03T03:00:45;1.30;;;0.80;;
71600;SDS011;59446;52.192;4.628;2022-08-03T03:03:11;1.48;;;0.90;;
71600;SDS011;59446;52.192;4.628;2022-08-03T03:05:37;1.10;;;0.60;;
71600;SDS011;59446;52.192;4.628;2022-08-03T03:08:05;2.83;;;0.80;;
71600;SDS011;59446;52.192;4.628;2022-08-03T03:10:30;0.77;;;0.60;;
71600;SDS011;59446;52.192;4.628;2022-08-03T03:12:56;2.43;;;0.87;;
71600;SDS011;59446;52.192;4.628;2022-08-03T03:15:23;3.90;;;0.95;;
71600;SDS011;59446;52.192;4.628;2022-08-03T03:17:50;1.55;;;0.70;;
71600;SDS011;59446;52.192;4.628;2022-08-03T03:20:17;0.60;;;0.50;;
71600;SDS011;59446;52.192;4.628;2022-08-03T03:22:45;1.30;;;0.65;;
71600;SDS011;59446;52.192;4.628;2022-08-03T03:25:13;0.80;;;0.70;;
71600;SDS011;59446;52.192;4.628;2022-08-03T03:27:39;0.83;;;0.60;;
71600;SDS011;59446;52.192;4.628;2022-08-03T03:30:05;0.73;;;0.60;;
71600;SDS011;59446;52.192;4.628;2022-08-03T03:32:31;1.25;;;0.65;;
71600;SDS011;59446;52.192;4.628;2022-08-03T03:34:57;1.00;;;0.50;;
71600;SDS011;59446;52.192;4.628;2022-08-03T03:37:23;1.42;;;0.70;;
71600;SDS011;59446;52.192;4.628;2022-08-03T03:39:51;1.98;;;0.80;;
71600;SDS011;59446;52.192;4.628;2022-08-03T03:42:17;1.60;;;0.60;;
71600;SDS011;59446;52.192;4.628;2022-08-03T03:44:43;2.20;;;0.80;;
71600;SDS011;59446;52.192;4.628;2022-08-03T03:47:08;1.47;;;0.70;;
71600;SDS011;59446;52.192;4.628;2022-08-03T03:49:34;1.17;;;0.70;;
71600;SDS011;59446;52.192;4.628;2022-08-03T03:52:00;2.60;;;0.70;;
71600;SDS011;59446;52.192;4.628;2022-08-03T03:54:25;0.57;;;0.50;;
71600;SDS011;59446;52.192;4.628;2022-08-03T03:56:51;1.53;;;0.60;;
71600;SDS011;59446;52.192;4.628;2022-08-03T03:59:16;2.47;;;0.70;;
71600;SDS011;59446;52.192;4.628;2022-08-03T04:01:42;2.43;;;0.80;;
71600;SDS011;59446;52.192;4.628;2022-08-03T04:04:07;0.73;;;0.60;;
71600;SDS011;59446;52.192;4.628;2022-08-03T04:06:51;1.43;;;0.60;;
71600;SDS011;59446;52.192;4.628;2022-08-03T04:09:36;1.95;;;0.80;;
71600;SDS011;59446;52.192;4.628;2022-08-03T04:12:22;1.77;;;0.90;;
71600;SDS011;59446;52.192;4.628;2022-08-03T04:14:50;1.07;;;0.63;;
71600;SDS011;59446;52.192;4.628;2022-08-03T04:17:20;1.38;;;0.60;;
71600;SDS011;59446;52.192;4.628;2022-08-03T04:19:51;1.67;;;0.70;;
71600;SDS011;59446;52.192;4.628;2022-08-03T04:22:20;1.37;;;0.70;;
71600;SDS011;59446;52.192;4.628;2022-08-03T04:24:50;1.00;;;0.70;;
71600;SDS011;59446;52.192;4.628;2022-08-03T04:27:27;1.48;;;0.60;;
71600;SDS011;59446;52.192;4.628;2022-08-03T04:29:57;1.02;;;0.60;;
71600;SDS011;59446;52.192;4.628;2022-08-03T04:32:25;1.23;;;0.70;;
71600;SDS011;59446;52.192;4.628;2022-08-03T04:34:52;2.05;;;0.70;;
71600;SDS011;59446;52.192;4.628;2022-08-03T04:37:37;2.42;;;0.70;;
71600;SDS011;59446;52.192;4.628;2022-08-03T04:40:06;0.70;;;0.60;;
71600;SDS011;59446;52.192;4.628;2022-08-03T04:42:34;1.20;;;0.70;;
71600;SDS011;59446;52.192;4.628;2022-08-03T04:45:02;1.25;;;0.70;;
71600;SDS011;59446;52.192;4.628;2022-08-03T04:47:32;1.57;;;0.80;;
71600;SDS011;59446;52.192;4.628;2022-08-03T04:50:01;1.00;;;0.77;;
71600;SDS011;59446;52.192;4.628;2022-08-03T04:52:29;1.65;;;0.82;;
71600;SDS011;59446;52.192;4.628;2022-08-03T04:54:55;0.97;;;0.70;;
71600;SDS011;59446;52.192;4.628;2022-08-03T04:57:20;0.93;;;0.60;;
71600;SDS011;59446;52.192;4.628;2022-08-03T04:59:46;1.87;;;0.80;;
71600;SDS011;59446;52.192;4.628;2022-08-03T05:02:13;0.73;;;0.60;;
71600;SDS011;59446;52.192;4.628;2022-08-03T05:04:40;2.00;;;0.93;;
71600;SDS011;59446;52.192;4.628;2022-08-03T05:07:10;0.80;;;0.55;;
71600;SDS011;59446;52.192;4.628;2022-08-03T05:09:36;1.65;;;0.70;;
71600;SDS011;59446;52.192;4.628;2022-08-03T05:12:02;0.90;;;0.60;;
71600;SDS011;59446;52.192;4.628;2022-08-03T05:14:28;1.33;;;0.60;;
71600;SDS011;59446;52.192;4.628;2022-08-03T05:16:54;1.17;;;0.73;;
71600;SDS011;59446;52.192;4.628;2022-08-03T05:19:19;2.40;;;0.67;;
71600;SDS011;59446;52.192;4.628;2022-08-03T05:21:45;1.60;;;0.80;;
71600;SDS011;59446;52.192;4.628;2022-08-03T05:24:10;1.20;;;0.70;;
71600;SDS011;59446;52.192;4.628;2022-08-03T05:26:38;1.80;;;0.60;;
71600;SDS011;59446;52.192;4.628;2022-08-03T05:29:03;1.17;;;0.70;;
71600;SDS011;59446;52.192;4.628;2022-08-03T05:31:28;0.87;;;0.70;;
71600;SDS011;59446;52.192;4.628;2022-08-03T05:33:55;1.58;;;0.80;;
71600;SDS011;59446;52.192;4.628;2022-08-03T05:36:21;1.13;;;0.80;;
71600;SDS011;59446;52.192;4.628;2022-08-03T05:38:46;1.53;;;0.70;;
71600;SDS011;59446;52.192;4.628;2022-08-03T05:41:12;0.95;;;0.80;;
71600;SDS011;59446;52.192;4.628;2022-08-03T05:43:37;1.13;;;0.70;;
71600;SDS011;59446;52.192;4.628;2022-08-03T05:46:02;0.63;;;0.60;;
71600;SDS011;59446;52.192;4.628;2022-08-03T05:48:28;1.73;;;0.90;;
71600;SDS011;59446;52.192;4.628;2022-08-03T05:50:53;2.60;;;0.80;;
71600;SDS011;59446;52.192;4.628;2022-08-03T05:53:18;2.13;;;0.77;;
71600;SDS011;59446;52.192;4.628;2022-08-03T05:55:44;3.13;;;0.80;;
71600;SDS011;59446;52.192;4.628;2022-08-03T05:58:09;2.13;;;0.90;;
71600;SDS011;59446;52.192;4.628;2022-08-03T06:00:35;2.93;;;1.00;;
71600;SDS011;59446;52.192;4.628;2022-08-03T06:03:00;1.30;;;0.90;;
71600;SDS011;59446;52.192;4.628;2022-08-03T06:05:26;2.10;;;0.90;;
71600;SDS011;59446;52.192;4.628;2022-08-03T06:07:52;3.88;;;1.20;;
71600;SDS011;59446;52.192;4.628;2022-08-03T06:10:18;3.78;;;0.80;;
71600;SDS011;59446;52.192;4.628;2022-08-03T06:12:44;1.27;;;0.90;;
71600;SDS011;59446;52.192;4.628;2022-08-03T06:15:13;2.55;;;1.02;;
71600;SDS011;59446;52.192;4.628;2022-08-03T06:17:46;1.95;;;0.70;;
71600;SDS011;59446;52.192;4.628;2022-08-03T06:20:14;4.47;;;0.90;;
71600;SDS011;59446;52.192;4.628;2022-08-03T06:22:41;1.98;;;1.10;;
71600;SDS011;59446;52.192;4.628;2022-08-03T06:25:07;3.43;;;1.17;;
71600;SDS011;59446;52.192;4.628;2022-08-03T06:27:32;2.97;;;1.27;;
71600;SDS011;59446;52.192;4.628;2022-08-03T06:29:58;3.10;;;1.20;;
71600;SDS011;59446;52.192;4.628;2022-08-03T06:32:23;4.03;;;1.00;;
71600;SDS011;59446;52.192;4.628;2022-08-03T06:34:49;3.55;;;1.15;;
71600;SDS011;59446;52.192;4.628;2022-08-03T06:37:15;5.23;;;1.40;;
71600;SDS011;59446;52.192;4.628;2022-08-03T06:39:40;5.25;;;1.40;;
71600;SDS011;59446;52.192;4.628;2022-08-03T06:42:06;3.97;;;1.57;;
71600;SDS011;59446;52.192;4.628;2022-08-03T06:44:31;2.97;;;1.40;;
71600;SDS011;59446;52.192;4.628;2022-08-03T06:46:57;3.60;;;1.30;;
71600;SDS011;59446;52.192;4.628;2022-08-03T06:49:22;5.25;;;1.60;;
71600;SDS011;59446;52.192;4.628;2022-08-03T06:51:48;3.60;;;1.60;;
71600;SDS011;59446;52.192;4.628;2022-08-03T06:54:16;5.55;;;1.80;;
71600;SDS011;59446;52.192;4.628;2022-08-03T06:56:42;7.45;;;2.45;;
71600;SDS011;59446;52.192;4.628;2022-08-03T06:59:07;8.03;;;3.30;;
71600;SDS011;59446;52.192;4.628;2022-08-03T07:01:33;6.73;;;2.83;;
71600;SDS011;59446;52.192;4.628;2022-08-03T07:03:58;8.00;;;3.00;;
71600;SDS011;59446;52.192;4.628;2022-08-03T07:06:24;10.05;;;3.75;;
71600;SDS011;59446;52.192;4.628;2022-08-03T07:08:50;7.67;;;3.87;;
71600;SDS011;59446;52.192;4.628;2022-08-03T07:11:15;9.37;;;3.80;;
71600;SDS011;59446;52.192;4.628;2022-08-03T07:13:40;12.35;;;4.85;;
71600;SDS011;59446;52.192;4.628;2022-08-03T07:16:06;12.13;;;4.00;;
71600;SDS011;59446;52.192;4.628;2022-08-03T07:18:31;7.53;;;3.70;;
71600;SDS011;59446;52.192;4.628;2022-08-03T07:20:57;9.67;;;3.90;;
71600;SDS011;59446;52.192;4.628;2022-08-03T07:23:23;10.02;;;3.55;;
71600;SDS011;59446;52.192;4.628;2022-08-03T07:25:49;9.85;;;4.03;;
71600;SDS011;59446;52.192;4.628;2022-08-03T07:28:14;11.40;;;4.63;;
71600;SDS011;59446;52.192;4.628;2022-08-03T07:30:40;9.23;;;4.60;;
71600;SDS011;59446;52.192;4.628;2022-08-03T07:33:05;13.40;;;4.57;;
71600;SDS011;59446;52.192;4.628;2022-08-03T07:35:31;8.50;;;4.43;;
71600;SDS011;59446;52.192;4.628;2022-08-03T07:37:56;13.02;;;4.82;;
71600;SDS011;59446;52.192;4.628;2022-08-03T07:40:21;10.40;;;4.30;;
71600;SDS011;59446;52.192;4.628;2022-08-03T07:42:47;11.10;;;4.00;;
71600;SDS011;59446;52.192;4.628;2022-08-03T07:45:12;7.87;;;4.10;;
71600;SDS011;59446;52.192;4.628;2022-08-03T07:47:38;9.50;;;4.13;;
71600;SDS011;59446;52.192;4.628;2022-08-03T07:50:04;10.70;;;4.30;;
71600;SDS011;59446;52.192;4.628;2022-08-03T07:52:30;11.57;;;4.60;;
71600;SDS011;59446;52.192;4.628;2022-08-03T07:55:14;9.07;;;4.03;;
71600;SDS011;59446;52.192;4.628;2022-08-03T07:57:41;8.82;;;3.95;;
71600;SDS011;59446;52.192;4.628;2022-08-03T08:00:11;8.00;;;4.07;;
71600;SDS011;59446;52.192;4.628;2022-08-03T08:02:41;7.65;;;4.60;;
71600;SDS011;59446;52.192;4.628;2022-08-03T08:05:07;7.70;;;3.88;;
71600;SDS011;59446;52.192;4.628;2022-08-03T08:07:33;6.37;;;3.70;;
71600;SDS011;59446;52.192;4.628;2022-08-03T08:09:58;7.83;;;3.77;;
71600;SDS011;59446;52.192;4.628;2022-08-03T08:12:24;9.57;;;3.72;;
71600;SDS011;59446;52.192;4.628;2022-08-03T08:14:49;8.97;;;3.60;;
71600;SDS011;59446;52.192;4.628;2022-08-03T08:17:15;8.90;;;3.72;;
71600;SDS011;59446;52.192;4.628;2022-08-03T08:19:40;8.37;;;3.77;;
71600;SDS011;59446;52.192;4.628;2022-08-03T08:22:06;6.97;;;2.90;;
71600;SDS011;59446;52.192;4.628;2022-08-03T08:24:31;6.37;;;3.27;;
71600;SDS011;59446;52.192;4.628;2022-08-03T08:26:58;9.68;;;4.07;;
71600;SDS011;59446;52.192;4.628;2022-08-03T08:29:24;7.32;;;3.70;;
71600;SDS011;59446;52.192;4.628;2022-08-03T08:31:49;8.73;;;3.33;;
71600;SDS011;59446;52.192;4.628;2022-08-03T08:34:15;9.30;;;4.00;;
71600;SDS011;59446;52.192;4.628;2022-08-03T08:36:40;7.77;;;3.13;;
71600;SDS011;59446;52.192;4.628;2022-08-03T08:39:06;8.73;;;3.30;;
71600;SDS011;59446;52.192;4.628;2022-08-03T08:41:31;5.97;;;3.23;;
71600;SDS011;59446;52.192;4.628;2022-08-03T08:43:58;6.57;;;3.25;;
71600;SDS011;59446;52.192;4.628;2022-08-03T08:46:24;8.18;;;3.65;;
71600;SDS011;59446;52.192;4.628;2022-08-03T08:48:51;5.43;;;2.73;;
71600;SDS011;59446;52.192;4.628;2022-08-03T08:51:19;6.22;;;3.42;;
71600;SDS011;59446;52.192;4.628;2022-08-03T08:53:46;8.07;;;3.17;;
71600;SDS011;59446;52.192;4.628;2022-08-03T08:56:15;5.20;;;3.10;;
71600;SDS011;59446;52.192;4.628;2022-08-03T08:58:43;8.27;;;3.35;;
71600;SDS011;59446;52.192;4.628;2022-08-03T09:01:13;7.15;;;3.47;;
71600;SDS011;59446;52.192;4.628;2022-08-03T09:03:38;7.27;;;3.17;;
71600;SDS011;59446;52.192;4.628;2022-08-03T09:06:05;6.07;;;3.15;;
71600;SDS011;59446;52.192;4.628;2022-08-03T09:08:31;8.17;;;3.50;;
71600;SDS011;59446;52.192;4.628;2022-08-03T09:10:57;6.40;;;3.00;;
71600;SDS011;59446;52.192;4.628;2022-08-03T09:13:22;7.10;;;3.40;;
71600;SDS011;59446;52.192;4.628;2022-08-03T09:15:48;6.18;;;3.50;;
71600;SDS011;59446;52.192;4.628;2022-08-03T09:18:36;4.87;;;2.90;;
71600;SDS011;59446;52.192;4.628;2022-08-03T09:23:52;6.00;;;2.95;;
71600;SDS011;59446;52.192;4.628;2022-08-03T09:26:23;7.20;;;3.20;;
71600;SDS011;59446;52.192;4.628;2022-08-03T09:28:57;7.07;;;2.92;;
71600;SDS011;59446;52.192;4.628;2022-08-03T09:31:36;6.15;;;2.95;;
71600;SDS011;59446;52.192;4.628;2022-08-03T09:34:13;9.10;;;3.13;;
71600;SDS011;59446;52.192;4.628;2022-08-03T09:36:46;6.18;;;3.30;;
71600;SDS011;59446;52.192;4.628;2022-08-03T09:39:16;5.85;;;2.70;;
71600;SDS011;59446;52.192;4.628;2022-08-03T09:45:02;5.20;;;2.70;;
71600;SDS011;59446;52.192;4.628;2022-08-03T09:47:30;5.55;;;3.20;;
71600;SDS011;59446;52.192;4.628;2022-08-03T09:49:58;7.95;;;3.08;;
71600;SDS011;59446;52.192;4.628;2022-08-03T09:52:44;4.83;;;3.00;;
71600;SDS011;59446;52.192;4.628;2022-08-03T09:55:13;5.85;;;3.10;;
71600;SDS011;59446;52.192;4.628;2022-08-03T09:57:39;5.13;;;2.65;;
71600;SDS011;59446;52.192;4.628;2022-08-03T10:00:12;4.93;;;2.40;;
71600;SDS011;59446;52.192;4.628;2022-08-03T10:02:40;6.70;;;3.22;;
71600;SDS011;59446;52.192;4.628;2022-08-03T10:05:08;5.65;;;2.78;;
71600;SDS011;59446;52.192;4.628;2022-08-03T10:07:41;5.68;;;2.90;;
71600;SDS011;59446;52.192;4.628;2022-08-03T10:10:11;6.07;;;2.60;;
71600;SDS011;59446;52.192;4.628;2022-08-03T10:12:39;5.38;;;2.83;;
71600;SDS011;59446;52.192;4.628;2022-08-03T10:15:05;4.65;;;2.75;;
71600;SDS011;59446;52.192;4.628;2022-08-03T10:17:31;5.73;;;3.00;;
71600;SDS011;59446;52.192;4.628;2022-08-03T10:19:58;4.90;;;2.50;;
71600;SDS011;59446;52.192;4.628;2022-08-03T10:22:27;5.05;;;2.85;;
71600;SDS011;59446;52.192;4.628;2022-08-03T10:25:02;6.37;;;2.63;;
71600;SDS011;59446;52.192;4.628;2022-08-03T10:27:32;5.80;;;2.58;;
71600;SDS011;59446;52.192;4.628;2022-08-03T10:30:01;5.72;;;2.92;;
71600;SDS011;59446;52.192;4.628;2022-08-03T10:32:48;5.18;;;2.78;;
71600;SDS011;59446;52.192;4.628;2022-08-03T10:35:19;5.23;;;2.97;;
71600;SDS011;59446;52.192;4.628;2022-08-03T10:37:54;4.72;;;2.80;;
71600;SDS011;59446;52.192;4.628;2022-08-03T10:40:25;3.72;;;2.35;;
71600;SDS011;59446;52.192;4.628;2022-08-03T10:42:53;6.07;;;3.30;;
71600;SDS011;59446;52.192;4.628;2022-08-03T10:45:24;4.55;;;2.55;;
71600;SDS011;59446;52.192;4.628;2022-08-03T10:47:51;4.60;;;2.28;;
71600;SDS011;59446;52.192;4.628;2022-08-03T10:50:20;4.93;;;2.50;;
71600;SDS011;59446;52.192;4.628;2022-08-03T10:52:55;5.53;;;2.28;;
71600;SDS011;59446;52.192;4.628;2022-08-03T10:55:33;5.38;;;2.22;;
71600;SDS011;59446;52.192;4.628;2022-08-03T11:01:01;3.70;;;2.20;;
71600;SDS011;59446;52.192;4.628;2022-08-03T11:03:29;5.03;;;2.63;;
71600;SDS011;59446;52.192;4.628;2022-08-03T11:06:15;4.75;;;2.40;;
71600;SDS011;59446;52.192;4.628;2022-08-03T11:11:34;5.30;;;2.42;;
71600;SDS011;59446;52.192;4.628;2022-08-03T11:14:11;4.53;;;2.33;;
71600;SDS011;59446;52.192;4.628;2022-08-03T11:16:43;4.43;;;2.40;;
71600;SDS011;59446;52.192;4.628;2022-08-03T11:19:17;4.45;;;2.38;;
71600;SDS011;59446;52.192;4.628;2022-08-03T11:21:53;6.80;;;2.58;;
71600;SDS011;59446;52.192;4.628;2022-08-03T11:27:20;4.83;;;2.73;;
71600;SDS011;59446;52.192;4.628;2022-08-03T11:35:10;3.80;;;2.27;;
71600;SDS011;59446;52.192;4.628;2022-08-03T11:48:26;4.07;;;2.30;;
71600;SDS011;59446;52.192;4.628;2022-08-03T11:50:58;3.45;;;2.05;;
71600;SDS011;59446;52.192;4.628;2022-08-03T11:53:25;4.32;;;1.92;;
71600;SDS011;59446;52.192;4.628;2022-08-03T11:55:51;4.03;;;2.10;;
71600;SDS011;59446;52.192;4.628;2022-08-03T11:58:21;3.92;;;2.28;;
71600;SDS011;59446;52.192;4.628;2022-08-03T12:00:48;4.43;;;1.88;;
71600;SDS011;59446;52.192;4.628;2022-08-03T12:03:15;5.20;;;1.83;;
71600;SDS011;59446;52.192;4.628;2022-08-03T12:05:49;3.72;;;2.10;;
71600;SDS011;59446;52.192;4.628;2022-08-03T12:08:18;6.30;;;2.30;;
71600;SDS011;59446;52.192;4.628;2022-08-03T12:10:55;3.28;;;2.05;;
71600;SDS011;59446;52.192;4.628;2022-08-03T12:13:22;3.33;;;2.00;;
71600;SDS011;59446;52.192;4.628;2022-08-03T12:15:53;4.57;;;2.03;;
71600;SDS011;59446;52.192;4.628;2022-08-03T12:18:21;3.42;;;1.90;;
71600;SDS011;59446;52.192;4.628;2022-08-03T12:20:48;5.00;;;2.30;;
71600;SDS011;59446;52.192;4.628;2022-08-03T12:23:15;4.47;;;1.98;;
71600;SDS011;59446;52.192;4.628;2022-08-03T12:25:42;3.67;;;1.70;;
71600;SDS011;59446;52.192;4.628;2022-08-03T12:30:46;4.35;;;1.65;;
71600;SDS011;59446;52.192;4.628;2022-08-03T12:33:18;4.82;;;1.80;;
71600;SDS011;59446;52.192;4.628;2022-08-03T12:35:46;3.17;;;1.75;;
71600;SDS011;59446;52.192;4.628;2022-08-03T12:38:12;5.03;;;1.60;;
71600;SDS011;59446;52.192;4.628;2022-08-03T12:40:42;2.55;;;1.60;;
71600;SDS011;59446;52.192;4.628;2022-08-03T12:43:12;5.73;;;1.93;;
71600;SDS011;59446;52.192;4.628;2022-08-03T12:45:38;4.60;;;2.15;;
71600;SDS011;59446;52.192;4.628;2022-08-03T12:48:07;3.78;;;1.50;;
71600;SDS011;59446;52.192;4.628;2022-08-03T12:50:35;3.50;;;1.83;;
71600;SDS011;59446;52.192;4.628;2022-08-03T12:53:03;2.85;;;1.52;;
71600;SDS011;59446;52.192;4.628;2022-08-03T12:55:30;3.70;;;1.65;;
71600;SDS011;59446;52.192;4.628;2022-08-03T12:57:59;3.07;;;1.60;;
71600;SDS011;59446;52.192;4.628;2022-08-03T13:00:28;4.05;;;1.65;;
71600;SDS011;59446;52.192;4.628;2022-08-03T13:02:58;4.70;;;1.88;;
71600;SDS011;59446;52.192;4.628;2022-08-03T13:05:28;5.90;;;2.10;;
71600;SDS011;59446;52.192;4.628;2022-08-03T13:07:55;3.53;;;1.57;;
71600;SDS011;59446;52.192;4.628;2022-08-03T13:10:28;4.97;;;1.77;;
71600;SDS011;59446;52.192;4.628;2022-08-03T13:12:57;3.33;;;1.52;;
71600;SDS011;59446;52.192;4.628;2022-08-03T13:15:27;3.30;;;1.43;;
71600;SDS011;59446;52.192;4.628;2022-08-03T13:17:56;3.45;;;1.85;;
71600;SDS011;59446;52.192;4.628;2022-08-03T13:20:22;2.72;;;1.40;;
71600;SDS011;59446;52.192;4.628;2022-08-03T13:22:48;3.37;;;1.63;;
71600;SDS011;59446;52.192;4.628;2022-08-03T13:25:14;3.55;;;1.30;;
71600;SDS011;59446;52.192;4.628;2022-08-03T13:27:39;2.08;;;1.20;;
71600;SDS011;59446;52.192;4.628;2022-08-03T13:30:05;2.33;;;1.30;;
71600;SDS011;59446;52.192;4.628;2022-08-03T13:32:32;2.63;;;1.38;;
71600;SDS011;59446;52.192;4.628;2022-08-03T13:34:58;4.03;;;1.40;;
71600;SDS011;59446;52.192;4.628;2022-08-03T13:37:24;3.88;;;1.83;;
71600;SDS011;59446;52.192;4.628;2022-08-03T13:39:50;2.70;;;1.40;;
71600;SDS011;59446;52.192;4.628;2022-08-03T13:42:16;4.53;;;1.42;;
71600;SDS011;59446;52.192;4.628;2022-08-03T13:44:41;4.57;;;1.50;;
71600;SDS011;59446;52.192;4.628;2022-08-03T13:47:06;3.10;;;1.30;;
71600;SDS011;59446;52.192;4.628;2022-08-03T13:49:32;2.17;;;1.20;;
71600;SDS011;59446;52.192;4.628;2022-08-03T13:51:57;4.40;;;1.45;;
71600;SDS011;59446;52.192;4.628;2022-08-03T13:54:23;2.93;;;1.47;;
71600;SDS011;59446;52.192;4.628;2022-08-03T13:56:49;3.05;;;1.27;;
71600;SDS011;59446;52.192;4.628;2022-08-03T13:59:25;4.00;;;1.40;;
71600;SDS011;59446;52.192;4.628;2022-08-03T14:01:51;3.83;;;1.52;;
71600;SDS011;59446;52.192;4.628;2022-08-03T14:04:17;2.20;;;1.10;;
71600;SDS011;59446;52.192;4.628;2022-08-03T14:06:43;3.23;;;1.33;;
71600;SDS011;59446;52.192;4.628;2022-08-03T14:09:10;2.65;;;1.13;;
71600;SDS011;59446;52.192;4.628;2022-08-03T14:11:35;3.33;;;1.25;;
71600;SDS011;59446;52.192;4.628;2022-08-03T14:14:01;3.53;;;1.57;;
71600;SDS011;59446;52.192;4.628;2022-08-03T14:16:26;3.07;;;1.43;;
71600;SDS011;59446;52.192;4.628;2022-08-03T14:18:51;3.33;;;1.10;;
71600;SDS011;59446;52.192;4.628;2022-08-03T14:21:17;3.10;;;1.33;;
71600;SDS011;59446;52.192;4.628;2022-08-03T14:23:42;2.67;;;1.05;;
71600;SDS011;59446;52.192;4.628;2022-08-03T14:26:08;1.87;;;1.00;;
71600;SDS011;59446;52.192;4.628;2022-08-03T14:28:34;4.18;;;1.50;;
71600;SDS011;59446;52.192;4.628;2022-08-03T14:31:00;3.63;;;1.50;;
71600;SDS011;59446;52.192;4.628;2022-08-03T14:33:26;3.10;;;1.27;;
71600;SDS011;59446;52.192;4.628;2022-08-03T14:35:52;1.63;;;1.10;;
71600;SDS011;59446;52.192;4.628;2022-08-03T14:38:18;2.63;;;1.20;;
71600;SDS011;59446;52.192;4.628;2022-08-03T14:40:44;3.70;;;1.20;;
71600;SDS011;59446;52.192;4.628;2022-08-03T14:43:10;3.73;;;1.40;;
71600;SDS011;59446;52.192;4.628;2022-08-03T14:45:35;3.15;;;1.48;;
71600;SDS011;59446;52.192;4.628;2022-08-03T14:48:01;4.40;;;1.10;;
71600;SDS011;59446;52.192;4.628;2022-08-03T14:50:28;2.47;;;1.10;;
71600;SDS011;59446;52.192;4.628;2022-08-03T14:52:53;2.42;;;1.00;;
71600;SDS011;59446;52.192;4.628;2022-08-03T14:55:19;2.20;;;1.10;;
71600;SDS011;59446;52.192;4.628;2022-08-03T14:57:44;2.80;;;1.10;;
71600;SDS011;59446;52.192;4.628;2022-08-03T15:00:10;1.87;;;1.10;;
71600;SDS011;59446;52.192;4.628;2022-08-03T15:02:35;2.25;;;1.20;;
71600;SDS011;59446;52.192;4.628;2022-08-03T15:05:01;1.43;;;1.00;;
71600;SDS011;59446;52.192;4.628;2022-08-03T15:07:26;2.13;;;1.20;;
71600;SDS011;59446;52.192;4.628;2022-08-03T15:09:52;1.77;;;1.00;;
71600;SDS011;59446;52.192;4.628;2022-08-03T15:12:17;2.03;;;1.07;;
71600;SDS011;59446;52.192;4.628;2022-08-03T15:14:42;2.40;;;0.93;;
71600;SDS011;59446;52.192;4.628;2022-08-03T15:17:08;2.23;;;1.13;;
71600;SDS011;59446;52.192;4.628;2022-08-03T15:19:33;3.57;;;1.40;;
71600;SDS011;59446;52.192;4.628;2022-08-03T15:21:58;1.85;;;1.00;;
71600;SDS011;59446;52.192;4.628;2022-08-03T15:24:24;2.40;;;1.00;;
71600;SDS011;59446;52.192;4.628;2022-08-03T15:26:50;3.87;;;1.10;;
71600;SDS011;59446;52.192;4.628;2022-08-03T15:29:16;2.58;;;0.90;;
71600;SDS011;59446;52.192;4.628;2022-08-03T15:31:42;3.33;;;1.00;;
71600;SDS011;59446;52.192;4.628;2022-08-03T15:34:07;2.30;;;1.30;;
71600;SDS011;59446;52.192;4.628;2022-08-03T15:36:32;3.08;;;1.20;;
71600;SDS011;59446;52.192;4.628;2022-08-03T15:38:58;4.40;;;1.20;;